createdAt,value
2022-08-25T00:02:04.794Z,26.60
2022-08-25T00:04:31.892Z,26.60
2022-08-25T00:07:03.097Z,26.60
2022-08-25T00:09:31.781Z,26.60
2022-08-25T00:12:05.723Z,26.50
2022-08-25T00:14:36.911Z,26.50
2022-08-25T00:17:11.154Z,26.50
2022-08-25T00:19:38.609Z,26.50
2022-08-25T00:22:06.920Z,26.40
2022-08-25T00:24:33.953Z,26.40
2022-08-25T00:27:01.849Z,26.30
2022-08-25T00:29:30.098Z,26.30
2022-08-25T00:31:59.891Z,26.30
2022-08-25T00:34:34.259Z,26.30
2022-08-25T00:37:07.273Z,26.20
2022-08-25T00:39:35.001Z,26.20
2022-08-25T00:42:05.641Z,26.20
2022-08-25T00:44:39.563Z,26.20
2022-08-25T00:47:06.951Z,26.20
2022-08-25T00:49:41.581Z,26.20
2022-08-25T00:52:15.129Z,26.10
2022-08-25T00:54:48.297Z,26.10
2022-08-25T00:57:34.612Z,26.10
2022-08-25T01:00:08.524Z,26.10
2022-08-25T01:02:35.498Z,26.10
2022-08-25T01:05:02.617Z,26.00
2022-08-25T01:07:29.493Z,26.00
2022-08-25T01:09:56.418Z,25.90
2022-08-25T01:12:23.414Z,25.90
2022-08-25T01:14:52.565Z,25.90
2022-08-25T01:17:27.905Z,25.90
2022-08-25T01:19:55.819Z,25.90
2022-08-25T01:22:22.597Z,25.80
2022-08-25T01:24:59.568Z,25.80
2022-08-25T01:27:28.661Z,25.80
2022-08-25T01:29:59.255Z,25.80
2022-08-25T01:32:26.053Z,25.80
2022-08-25T01:34:55.102Z,25.80
2022-08-25T01:37:24.581Z,25.70
2022-08-25T01:39:51.362Z,25.70
2022-08-25T01:42:37.397Z,25.70
2022-08-25T01:45:05.401Z,25.70
2022-08-25T01:47:32.668Z,25.70
2022-08-25T01:49:59.487Z,25.60
2022-08-25T01:52:32.596Z,25.60
2022-08-25T01:55:01.577Z,25.60
2022-08-25T01:57:31.445Z,25.60
2022-08-25T02:00:02.923Z,25.60
2022-08-25T02:02:31.853Z,25.60
2022-08-25T02:04:59.743Z,25.50
2022-08-25T02:07:26.851Z,25.50
2022-08-25T02:09:56.096Z,25.50
2022-08-25T02:12:25.673Z,25.50
2022-08-25T02:14:52.436Z,25.50
2022-08-25T02:17:21.666Z,25.50
2022-08-25T02:19:48.566Z,25.50
2022-08-25T02:22:18.326Z,25.50
2022-08-25T02:24:48.118Z,25.40
2022-08-25T02:27:15.033Z,25.40
2022-08-25T02:29:41.924Z,25.30
2022-08-25T02:32:10.498Z,25.30
2022-08-25T02:34:41.537Z,25.30
2022-08-25T02:37:10.637Z,25.20
2022-08-25T02:39:37.403Z,25.20
2022-08-25T02:42:06.202Z,25.20
2022-08-25T02:44:32.960Z,25.20
2022-08-25T02:46:59.820Z,25.10
2022-08-25T02:49:26.577Z,25.10
2022-08-25T02:51:54.485Z,25.00
2022-08-25T02:54:23.128Z,25.00
2022-08-25T02:56:49.902Z,25.00
2022-08-25T02:59:19.484Z,25.00
2022-08-25T03:01:46.346Z,24.90
2022-08-25T03:04:15.178Z,24.90
2022-08-25T03:06:44.925Z,24.90
2022-08-25T03:09:11.956Z,24.80
2022-08-25T03:11:41.105Z,24.80
2022-08-25T03:14:10.987Z,24.80
2022-08-25T03:16:38.283Z,24.80
2022-08-25T03:19:07.456Z,24.70
2022-08-25T03:21:34.343Z,24.70
2022-08-25T03:24:01.165Z,24.60
2022-08-25T03:26:46.597Z,24.60
2022-08-25T03:29:13.890Z,24.60
2022-08-25T03:31:44.849Z,24.50
2022-08-25T03:34:19.053Z,24.60
2022-08-25T03:36:48.233Z,24.50
2022-08-25T03:39:16.520Z,24.50
2022-08-25T03:41:43.492Z,24.50
2022-08-25T03:44:10.813Z,24.50
2022-08-25T03:46:49.028Z,24.50
2022-08-25T03:49:19.621Z,24.50
2022-08-25T03:51:49.160Z,24.40
2022-08-25T03:54:25.177Z,24.40
2022-08-25T03:56:52.738Z,24.40
2022-08-25T03:59:19.641Z,24.40
2022-08-25T04:01:50.344Z,24.30
2022-08-25T04:04:20.994Z,24.30
2022-08-25T04:06:50.121Z,24.30
2022-08-25T04:09:17.061Z,24.20
2022-08-25T04:11:43.803Z,24.10
2022-08-25T04:14:15.821Z,24.10
2022-08-25T04:16:46.289Z,24.10
2022-08-25T04:19:13.622Z,24.10
2022-08-25T04:21:41.029Z,24.00
2022-08-25T04:24:10.079Z,24.10
2022-08-25T04:26:49.835Z,24.00
2022-08-25T04:29:23.530Z,23.90
2022-08-25T04:31:53.697Z,24.00
2022-08-25T04:34:30.113Z,23.90
2022-08-25T04:37:02.626Z,24.00
2022-08-25T04:39:30.151Z,24.00
2022-08-25T04:42:00.584Z,23.90
2022-08-25T04:44:28.540Z,23.80
2022-08-25T04:46:57.454Z,23.80
2022-08-25T04:49:24.604Z,23.80
2022-08-25T04:51:53.730Z,23.90
2022-08-25T04:54:23.624Z,23.90
2022-08-25T04:56:54.590Z,23.90
2022-08-25T04:59:27.353Z,23.80
2022-08-25T05:01:58.772Z,23.70
2022-08-25T05:04:28.147Z,23.70
2022-08-25T05:06:56.682Z,23.60
2022-08-25T05:09:23.985Z,23.70
2022-08-25T05:11:52.697Z,23.80
2022-08-25T05:14:26.670Z,23.80
2022-08-25T05:16:55.366Z,23.90
2022-08-25T05:19:24.356Z,23.70
2022-08-25T05:21:57.999Z,23.80
2022-08-25T05:24:25.286Z,23.80
2022-08-25T05:26:52.091Z,23.90
2022-08-25T05:29:25.491Z,23.90
2022-08-25T05:31:53.428Z,23.90
2022-08-25T05:34:20.545Z,23.80
2022-08-25T05:36:49.661Z,23.80
2022-08-25T05:39:16.477Z,23.90
2022-08-25T05:41:43.245Z,23.80
2022-08-25T05:44:12.912Z,23.80
2022-08-25T05:46:39.752Z,23.90
2022-08-25T05:49:06.904Z,23.90
2022-08-25T05:51:34.062Z,24.00
2022-08-25T05:54:00.924Z,24.00
2022-08-25T05:56:27.817Z,23.90
2022-08-25T05:58:56.834Z,23.90
2022-08-25T06:01:45.912Z,23.80
2022-08-25T06:04:13.959Z,23.80
2022-08-25T06:06:41.116Z,23.80
2022-08-25T06:09:10.684Z,23.80
2022-08-25T06:11:41.269Z,23.80
2022-08-25T06:14:09.586Z,23.70
2022-08-25T06:16:39.054Z,23.70
2022-08-25T06:19:07.457Z,23.80
2022-08-25T06:21:34.334Z,23.70
2022-08-25T06:24:01.910Z,23.70
2022-08-25T06:26:28.709Z,23.80
2022-08-25T06:28:55.608Z,23.70
2022-08-25T06:31:22.860Z,23.80
2022-08-25T06:33:50.625Z,23.90
2022-08-25T06:36:19.921Z,23.90
2022-08-25T06:38:49.190Z,24.00
2022-08-25T06:41:18.414Z,24.10
2022-08-25T06:43:51.825Z,24.20
2022-08-25T06:46:36.236Z,24.10
2022-08-25T06:49:05.817Z,24.10
2022-08-25T06:51:38.138Z,24.10
2022-08-25T06:54:09.952Z,24.10
2022-08-25T06:56:37.406Z,24.10
2022-08-25T06:59:05.938Z,24.00
2022-08-25T07:01:33.479Z,24.10
2022-08-25T07:04:02.653Z,24.20
2022-08-25T07:06:35.470Z,24.30
2022-08-25T07:09:05.060Z,24.20
2022-08-25T07:11:34.247Z,24.20
2022-08-25T07:14:03.889Z,24.30
2022-08-25T07:16:33.949Z,24.40
2022-08-25T07:19:01.556Z,24.40
2022-08-25T07:21:33.683Z,24.40
2022-08-25T07:24:05.476Z,24.40
2022-08-25T07:26:38.845Z,24.40
2022-08-25T07:29:15.277Z,24.50
2022-08-25T07:31:44.463Z,24.60
2022-08-25T07:34:30.081Z,24.70
2022-08-25T07:36:57.521Z,24.70
2022-08-25T07:39:26.752Z,24.70
2022-08-25T07:41:56.097Z,24.80
2022-08-25T07:44:28.027Z,24.80
2022-08-25T07:46:55.553Z,24.80
2022-08-25T07:49:23.868Z,24.80
2022-08-25T07:52:04.463Z,24.80
2022-08-25T07:54:37.780Z,24.90
2022-08-25T07:57:08.884Z,25.10
2022-08-25T07:59:42.042Z,25.10
2022-08-25T08:02:16.042Z,25.20
2022-08-25T08:04:47.527Z,25.20
2022-08-25T08:07:17.503Z,25.20
2022-08-25T08:09:44.352Z,25.20
2022-08-25T08:12:11.915Z,25.30
2022-08-25T08:14:44.876Z,25.40
2022-08-25T08:17:12.942Z,25.50
2022-08-25T08:19:45.151Z,25.60
2022-08-25T08:22:15.554Z,25.70
2022-08-25T08:24:56.291Z,25.70
2022-08-25T08:27:28.952Z,25.80
2022-08-25T08:29:55.823Z,25.80
2022-08-25T08:32:32.439Z,26.00
2022-08-25T08:35:16.608Z,26.00
2022-08-25T08:37:43.428Z,26.00
2022-08-25T08:40:10.854Z,26.10
2022-08-25T08:43:04.050Z,26.20
2022-08-25T08:45:48.472Z,26.30
2022-08-25T08:48:40.643Z,26.30
2022-08-25T08:51:23.208Z,26.30
2022-08-25T08:53:58.514Z,26.50
2022-08-25T08:56:33.883Z,26.60
2022-08-25T08:59:09.877Z,26.80
2022-08-25T09:01:48.098Z,26.80
2022-08-25T09:04:31.894Z,26.90
2022-08-25T09:07:07.391Z,27.00
2022-08-25T09:09:43.070Z,27.10
2022-08-25T09:12:36.050Z,27.20
2022-08-25T09:15:22.369Z,27.30
2022-08-25T09:18:01.924Z,27.40
2022-08-25T09:20:32.662Z,27.50
2022-08-25T09:23:15.589Z,27.70
2022-08-25T09:26:28.417Z,27.80
2022-08-25T09:29:07.320Z,27.90
2022-08-25T09:31:44.858Z,28.00
2022-08-25T09:34:32.675Z,28.10
2022-08-25T09:37:02.208Z,28.20
2022-08-25T09:39:29.035Z,28.20
2022-08-25T09:42:00.577Z,28.30
2022-08-25T09:44:34.822Z,28.30
2022-08-25T09:47:12.759Z,28.30
2022-08-25T09:49:46.869Z,28.30
2022-08-25T09:52:25.511Z,28.40
2022-08-25T09:54:54.367Z,28.60
2022-08-25T09:57:56.877Z,28.70
2022-08-25T10:00:27.905Z,28.70
2022-08-25T10:03:14.082Z,28.80
2022-08-25T10:06:12.933Z,28.90
2022-08-25T10:08:40.415Z,29.00
2022-08-25T10:11:17.471Z,29.10
2022-08-25T10:13:49.272Z,29.20
2022-08-25T10:16:27.014Z,29.30
2022-08-25T10:19:07.630Z,29.20
2022-08-25T10:21:36.237Z,29.30
2022-08-25T10:24:05.435Z,29.40
2022-08-25T10:26:41.407Z,29.70
2022-08-25T10:29:49.787Z,29.90
2022-08-25T10:32:38.718Z,30.00
2022-08-25T10:35:13.870Z,30.10
2022-08-25T10:37:58.361Z,30.20
2022-08-25T10:40:34.433Z,30.40
2022-08-25T10:43:29.250Z,30.50
2022-08-25T10:46:04.661Z,30.60
2022-08-25T10:48:50.192Z,30.70
2022-08-25T10:51:37.487Z,30.60
2022-08-25T10:54:25.156Z,30.60
2022-08-25T10:57:11.196Z,30.90
2022-08-25T10:59:51.329Z,31.00
2022-08-25T11:02:59.578Z,31.10
2022-08-25T11:05:47.113Z,30.90
2022-08-25T11:08:16.746Z,31.10
2022-08-25T11:10:52.970Z,31.40
2022-08-25T11:13:47.559Z,31.80
2022-08-25T11:16:24.650Z,31.50
2022-08-25T11:19:33.790Z,31.80
2022-08-25T11:22:16.380Z,31.80
2022-08-25T11:24:53.775Z,31.60
2022-08-25T11:27:25.954Z,31.60
2022-08-25T11:30:09.460Z,31.70
2022-08-25T11:32:38.188Z,31.90
2022-08-25T11:35:12.667Z,32.30
2022-08-25T11:37:59.739Z,32.00
2022-08-25T11:40:50.481Z,32.30
2022-08-25T11:43:26.526Z,32.60
2022-08-25T11:46:01.545Z,32.60
2022-08-25T11:49:01.848Z,32.80
2022-08-25T11:51:49.517Z,32.90
2022-08-25T11:54:38.938Z,33.10
2022-08-25T11:57:27.642Z,33.10
2022-08-25T11:59:57.062Z,33.20
2022-08-25T12:02:47.434Z,33.30
2022-08-25T12:05:17.391Z,33.60
2022-08-25T12:07:47.383Z,34.00
2022-08-25T12:10:20.948Z,33.90
2022-08-25T12:12:49.311Z,33.90
2022-08-25T12:15:26.231Z,34.20
2022-08-25T12:18:14.502Z,34.40
2022-08-25T12:20:56.450Z,34.50
2022-08-25T12:23:34.016Z,34.60
2022-08-25T12:26:31.680Z,34.70
2022-08-25T12:29:10.177Z,34.90
2022-08-25T12:31:50.090Z,35.10
2022-08-25T12:34:19.371Z,34.90
2022-08-25T12:37:06.287Z,35.00
2022-08-25T12:39:42.721Z,35.20
2022-08-25T12:42:29.943Z,35.20
2022-08-25T12:45:16.930Z,35.10
2022-08-25T12:47:47.444Z,35.10
2022-08-25T12:50:39.052Z,35.30
2022-08-25T12:53:36.359Z,35.30
2022-08-25T12:56:08.668Z,35.50
2022-08-25T12:59:07.592Z,36.00
2022-08-25T13:02:03.110Z,36.70
2022-08-25T13:04:58.669Z,37.10
2022-08-25T13:07:43.542Z,37.30
2022-08-25T13:10:23.845Z,37.40
2022-08-25T13:13:06.720Z,37.30
2022-08-25T13:15:57.800Z,37.60
2022-08-25T13:18:34.106Z,38.30
2022-08-25T13:21:23.314Z,38.80
2022-08-25T13:23:54.012Z,39.00
2022-08-25T13:26:35.079Z,39.40
2022-08-25T13:29:13.439Z,39.10
2022-08-25T13:32:14.769Z,39.50
2022-08-25T13:34:43.154Z,40.00
2022-08-25T13:37:29.666Z,40.20
2022-08-25T13:40:16.493Z,40.60
2022-08-25T13:42:54.394Z,40.10
2022-08-25T13:45:26.616Z,41.10
2022-08-25T13:47:55.934Z,40.80
2022-08-25T13:50:26.778Z,41.20
2022-08-25T13:53:05.960Z,41.30
2022-08-25T13:55:51.149Z,41.60
2022-08-25T13:58:38.936Z,40.70
2022-08-25T14:01:22.548Z,40.30
2022-08-25T14:04:31.395Z,40.70
2022-08-25T14:07:19.333Z,41.00
2022-08-25T14:09:54.621Z,41.00
2022-08-25T14:12:42.212Z,41.00
2022-08-25T14:15:18.050Z,40.60
2022-08-25T14:18:00.587Z,40.80
2022-08-25T14:20:30.981Z,40.90
2022-08-25T14:23:03.319Z,41.50
2022-08-25T14:25:33.397Z,41.00
2022-08-25T14:28:07.204Z,41.30
2022-08-25T14:30:46.226Z,41.70
2022-08-25T14:33:15.095Z,41.40
2022-08-25T14:35:50.124Z,41.70
2022-08-25T14:38:19.692Z,42.10
2022-08-25T14:40:48.055Z,41.90
2022-08-25T14:43:15.704Z,40.90
2022-08-25T14:45:45.981Z,40.80
2022-08-25T14:48:24.952Z,41.40
2022-08-25T14:50:53.506Z,41.70
2022-08-25T14:53:20.298Z,42.20
2022-08-25T14:55:47.774Z,42.50
2022-08-25T14:58:14.701Z,42.80
2022-08-25T15:00:44.637Z,42.40
2022-08-25T15:03:17.600Z,42.00
2022-08-25T15:05:44.787Z,42.60
2022-08-25T15:08:33.046Z,42.60
2022-08-25T15:11:00.322Z,42.90
2022-08-25T15:13:27.539Z,42.60
2022-08-25T15:15:55.203Z,42.60
2022-08-25T15:18:25.928Z,43.10
2022-08-25T15:20:53.014Z,42.60
2022-08-25T15:23:20.268Z,43.40
2022-08-25T15:25:52.760Z,43.40
2022-08-25T15:28:22.324Z,43.30
2022-08-25T15:30:49.976Z,43.40
2022-08-25T15:33:17.450Z,43.40
2022-08-25T15:35:45.162Z,42.60
2022-08-25T15:38:12.848Z,42.50
2022-08-25T15:40:39.927Z,40.90
2022-08-25T15:43:07.041Z,42.00
2022-08-25T15:45:36.105Z,42.00
2022-08-25T15:48:04.379Z,42.00
2022-08-25T15:50:35.817Z,42.10
2022-08-25T15:53:02.613Z,41.80
2022-08-25T15:55:29.380Z,41.70
2022-08-25T15:57:58.985Z,41.80
2022-08-25T16:00:28.820Z,41.30
2022-08-25T16:03:00.841Z,40.50
2022-08-25T16:05:27.729Z,39.40
2022-08-25T16:07:56.786Z,38.70
2022-08-25T16:10:24.043Z,38.30
2022-08-25T16:12:52.014Z,38.00
2022-08-25T16:15:19.156Z,37.60
2022-08-25T16:17:54.772Z,37.30
2022-08-25T16:20:26.167Z,37.30
2022-08-25T16:22:53.084Z,36.90
2022-08-25T16:25:20.356Z,36.80
2022-08-25T16:27:48.359Z,36.70
2022-08-25T16:30:17.757Z,36.70
2022-08-25T16:32:46.582Z,36.70
2022-08-25T16:35:13.807Z,36.60
2022-08-25T16:37:43.142Z,36.30
2022-08-25T16:40:13.457Z,36.30
2022-08-25T16:42:41.828Z,36.10
2022-08-25T16:45:09.321Z,36.10
2022-08-25T16:47:38.138Z,35.90
2022-08-25T16:50:06.665Z,35.70
2022-08-25T16:52:51.872Z,35.70
2022-08-25T16:55:19.449Z,35.60
2022-08-25T16:57:49.538Z,35.70
2022-08-25T17:00:23.266Z,35.70
2022-08-25T17:02:54.409Z,35.70
2022-08-25T17:05:21.196Z,35.50
2022-08-25T17:08:08.177Z,35.30
2022-08-25T17:10:42.411Z,35.30
2022-08-25T17:13:09.815Z,35.40
2022-08-25T17:15:45.289Z,34.90
2022-08-25T17:18:15.436Z,35.00
2022-08-25T17:20:44.755Z,35.20
2022-08-25T17:23:14.285Z,35.10
2022-08-25T17:25:43.325Z,35.00
2022-08-25T17:28:12.295Z,34.90
2022-08-25T17:30:40.277Z,34.90
2022-08-25T17:33:09.269Z,34.80
2022-08-25T17:35:43.047Z,34.70
2022-08-25T17:38:11.106Z,34.60
2022-08-25T17:40:42.866Z,34.50
2022-08-25T17:43:10.780Z,34.50
2022-08-25T17:45:39.269Z,34.60
2022-08-25T17:48:08.742Z,34.40
2022-08-25T17:50:36.744Z,34.30
2022-08-25T17:53:03.750Z,34.20
2022-08-25T17:55:31.404Z,34.10
2022-08-25T17:57:59.319Z,34.00
2022-08-25T18:00:26.248Z,34.00
2022-08-25T18:02:55.533Z,34.00
2022-08-25T18:05:23.988Z,33.90
2022-08-25T18:07:54.639Z,33.80
2022-08-25T18:10:21.621Z,33.70
2022-08-25T18:12:48.690Z,33.60
2022-08-25T18:15:20.183Z,33.40
2022-08-25T18:17:47.161Z,33.30
2022-08-25T18:20:16.922Z,33.30
2022-08-25T18:22:48.051Z,33.20
2022-08-25T18:25:15.739Z,33.20
2022-08-25T18:27:46.458Z,33.00
2022-08-25T18:30:13.475Z,32.90
2022-08-25T18:32:40.471Z,32.90
2022-08-25T18:35:07.808Z,32.80
2022-08-25T18:37:53.115Z,32.70
2022-08-25T18:40:23.099Z,32.60
2022-08-25T18:42:54.311Z,32.50
2022-08-25T18:45:24.114Z,32.50
2022-08-25T18:48:00.325Z,32.40
2022-08-25T18:50:29.662Z,32.30
2022-08-25T18:52:57.312Z,32.20
2022-08-25T18:55:27.164Z,32.20
2022-08-25T18:57:55.823Z,32.10
2022-08-25T19:00:25.307Z,32.00
